Time;durP1;ratioP1;P1;durP2;ratioP2;P2;SDS_P1;SDS_P2;PMS_P1;PMS_P2;Temp;Humidity;BMP_temperature;BMP_pressure;BME280_temperature;BME280_humidity;BME280_pressure;Samples;Min_cycle;Max_cycle;Signal;HPM_P1;HPM_P2
2022/04/10 00:00:30;;;;;;;;;;;6.80;57.00;;;;;;5153528;27;19912;-73
2022/04/10 00:02:56;;;;;;;;;;;6.90;56.90;;;;;;5153147;27;19911;-73
2022/04/10 00:05:21;;;;;;;;;;;6.90;56.90;;;;;;5153590;27;20282;-73
2022/04/10 00:07:47;;;;;;;;;;;6.90;57.40;;;;;;5153275;27;19907;-72
2022/04/10 00:10:12;;;;;;;;;;;6.90;56.90;;;;;;5153283;27;19959;-73
2022/04/10 00:12:38;;;;;;;;;;;7.00;56.80;;;;;;5153338;27;19946;-72
2022/04/10 00:15:04;;;;;;;;;;;7.00;56.80;;;;;;5152897;27;20354;-73
2022/04/10 00:17:29;;;;;;;;;;;7.00;56.90;;;;;;5153019;27;19914;-73
2022/04/10 00:19:55;;;;;;;;;;;7.00;56.80;;;;;;5153044;27;19928;-72
2022/04/10 00:22:21;;;;;;;;;;;6.90;56.80;;;;;;5153056;27;19915;-73
2022/04/10 00:24:46;;;;;;;;;;;7.00;56.80;;;;;;5134461;27;19957;-73
2022/04/10 00:27:14;;;;;;;;;;;7.00;56.80;;;;;;5134162;27;20322;-72
2022/04/10 00:29:40;;;;;;;;;;;7.00;56.90;;;;;;5153057;27;20346;-72
2022/04/10 00:32:06;;;;;;;;;;;7.00;56.90;;;;;;5152772;27;19919;-73
2022/04/10 00:34:31;;;;;;;;;;;7.00;56.70;;;;;;5152412;27;19969;-73
2022/04/10 00:36:57;;;;;;;;;;;7.00;56.70;;;;;;5152623;27;19911;-73
2022/04/10 00:39:22;;;;;;;;;;;6.90;56.70;;;;;;5153008;27;19918;-73
2022/04/10 00:41:49;;;;;;;;;;;6.90;56.70;;;;;;5152839;27;20266;-73
2022/04/10 00:44:15;;;;;;;;;;;6.90;56.80;;;;;;5152837;27;19911;-72
2022/04/10 00:46:41;;;;;;;;;;;6.80;56.70;;;;;;5152768;27;19914;-73
2022/04/10 00:49:07;;;;;;;;;;;6.80;56.70;;;;;;5152666;27;20280;-73
2022/04/10 00:51:43;;;;;;;;;;;6.70;56.70;;;;;;5152515;27;20280;-73
2022/04/10 00:54:19;;;;;;;;;;;6.50;56.80;;;;;;5152702;27;20311;-72
2022/04/10 00:56:45;;;;;;;;;;;6.40;56.90;;;;;;5133995;27;20433;-73
2022/04/10 00:59:12;;;;;;;;;;;6.30;57.00;;;;;;5152411;27;20442;-73
2022/04/10 01:01:38;;;;;;;;;;;6.30;57.10;;;;;;5152744;27;19911;-73
2022/04/10 01:04:05;;;;;;;;;;;6.30;57.10;;;;;;5152702;27;19915;-73
2022/04/10 01:06:34;;;;;;;;;;;6.30;57.00;;;;;;5151914;27;19996;-73
2022/04/10 01:09:00;;;;;;;;;;;6.30;57.00;;;;;;5133622;27;19972;-73
2022/04/10 01:11:26;;;;;;;;;;;6.30;57.00;;;;;;5133634;27;19941;-73
2022/04/10 01:13:53;;;;;;;;;;;6.20;56.90;;;;;;5133465;27;19911;-73
2022/04/10 01:16:20;;;;;;;;;;;6.20;57.10;;;;;;5152362;27;19918;-74
2022/04/10 01:18:45;;;;;;;;;;;6.20;57.20;;;;;;5151929;27;19976;-73
2022/04/10 01:21:11;;;;;;;;;;;6.30;57.30;;;;;;5151922;27;19910;-73
2022/04/10 01:23:37;;;;;;;;;;;6.30;57.30;;;;;;5152081;27;19922;-73
2022/04/10 01:26:03;;;;;;;;;;;6.40;57.40;;;;;;5151980;27;19907;-73
2022/04/10 01:28:28;;;;;;;;;;;6.50;57.20;;;;;;5151974;27;20416;-74
2022/04/10 01:30:54;;;;;;;;;;;6.50;57.20;;;;;;5152336;27;19946;-73
2022/04/10 01:33:19;;;;;;;;;;;6.60;57.20;;;;;;5151541;27;19930;-73
2022/04/10 01:35:45;;;;;;;;;;;6.60;57.20;;;;;;5151732;27;19911;-73
2022/04/10 01:38:11;;;;;;;;;;;6.60;57.10;;;;;;5133050;27;20376;-73
2022/04/10 01:40:38;;;;;;;;;;;6.60;57.00;;;;;;5151620;27;19963;-73
2022/04/10 01:43:04;;;;;;;;;;;6.70;57.10;;;;;;5151764;27;20440;-73
2022/04/10 01:45:29;;;;;;;;;;;6.70;57.00;;;;;;5151623;27;20347;-73
2022/04/10 01:47:55;;;;;;;;;;;6.70;57.00;;;;;;5151625;27;19915;-73
2022/04/10 01:50:22;;;;;;;;;;;6.70;57.10;;;;;;5151520;27;20118;-73
2022/04/10 01:52:47;;;;;;;;;;;6.70;57.10;;;;;;5151389;27;19923;-73
2022/04/10 01:55:13;;;;;;;;;;;6.70;57.10;;;;;;5151428;27;19988;-73
2022/04/10 01:57:38;;;;;;;;;;;6.80;57.20;;;;;;5151404;27;20357;-73
2022/04/10 02:00:05;;;;;;;;;;;6.90;57.20;;;;;;5151447;27;19916;-73
2022/04/10 02:02:30;;;;;;;;;;;6.90;57.10;;;;;;5151138;27;20422;-73
2022/04/10 02:04:56;;;;;;;;;;;7.00;57.20;;;;;;5151318;27;19907;-73
2022/04/10 02:07:22;;;;;;;;;;;7.00;57.20;;;;;;5151188;27;19918;-73
2022/04/10 02:09:47;;;;;;;;;;;7.00;57.10;;;;;;5151141;27;19958;-73
2022/04/10 02:12:13;;;;;;;;;;;7.00;57.00;;;;;;5151151;27;19958;-73
2022/04/10 02:14:38;;;;;;;;;;;6.80;56.90;;;;;;5150966;27;19911;-73
2022/04/10 02:17:04;;;;;;;;;;;6.60;56.90;;;;;;5150981;27;19943;-73
2022/04/10 02:19:30;;;;;;;;;;;6.40;57.10;;;;;;5131277;27;19907;-73
2022/04/10 02:21:57;;;;;;;;;;;6.20;57.30;;;;;;5151100;27;19954;-73
2022/04/10 02:24:23;;;;;;;;;;;6.10;57.50;;;;;;5150836;27;19960;-73
2022/04/10 02:26:48;;;;;;;;;;;5.90;57.40;;;;;;5150858;27;20424;-73
2022/04/10 02:29:14;;;;;;;;;;;5.80;57.50;;;;;;5150661;27;19911;-73
2022/04/10 02:31:40;;;;;;;;;;;5.70;57.70;;;;;;5150941;27;19959;-73
2022/04/10 02:34:05;;;;;;;;;;;5.60;57.60;;;;;;5150472;27;19934;-73
2022/04/10 02:36:31;;;;;;;;;;;5.60;57.60;;;;;;5150668;27;19946;-73
2022/04/10 02:38:56;;;;;;;;;;;5.50;57.60;;;;;;5150518;27;19907;-73
2022/04/10 02:41:22;;;;;;;;;;;5.40;57.60;;;;;;5150605;27;20376;-73
2022/04/10 02:43:47;;;;;;;;;;;5.40;57.70;;;;;;5150524;27;20020;-74
2022/04/10 02:46:13;;;;;;;;;;;5.30;57.70;;;;;;5131803;27;19929;-73
2022/04/10 02:48:38;;;;;;;;;;;5.30;57.70;;;;;;5150090;27;19960;-73
2022/04/10 02:51:04;;;;;;;;;;;5.20;57.60;;;;;;5150341;27;19927;-73
2022/04/10 02:53:30;;;;;;;;;;;5.20;57.70;;;;;;5150307;27;19908;-73
2022/04/10 02:55:55;;;;;;;;;;;5.20;57.70;;;;;;5150294;27;19917;-73
2022/04/10 02:58:21;;;;;;;;;;;5.20;57.70;;;;;;5150256;27;20005;-73
2022/04/10 03:00:47;;;;;;;;;;;5.30;57.70;;;;;;5150015;27;19916;-73
2022/04/10 03:03:13;;;;;;;;;;;5.30;57.60;;;;;;5149955;27;20265;-73
2022/04/10 03:05:39;;;;;;;;;;;5.30;57.50;;;;;;5150096;27;19915;-73
2022/04/10 03:08:04;;;;;;;;;;;5.20;57.50;;;;;;5149995;27;20391;-74
2022/04/10 03:10:30;;;;;;;;;;;5.20;57.50;;;;;;5150131;27;19960;-73
2022/04/10 03:12:55;;;;;;;;;;;5.10;57.40;;;;;;5150006;27;19919;-73
2022/04/10 03:15:21;;;;;;;;;;;5.00;57.50;;;;;;5150356;27;19934;-73
2022/04/10 03:17:46;;;;;;;;;;;4.90;57.80;;;;;;5150275;27;19918;-73
2022/04/10 03:20:12;;;;;;;;;;;5.00;57.90;;;;;;5149928;27;19914;-73
2022/04/10 03:22:38;;;;;;;;;;;5.10;58.10;;;;;;5114249;27;19911;-73
2022/04/10 03:25:04;;;;;;;;;;;5.10;58.10;;;;;;5149841;27;19914;-73
2022/04/10 03:27:30;;;;;;;;;;;5.30;58.10;;;;;;5149739;27;19914;-73
2022/04/10 03:29:55;;;;;;;;;;;5.30;58.00;;;;;;5149693;27;19915;-74
2022/04/10 03:32:21;;;;;;;;;;;5.30;58.10;;;;;;5149692;27;19938;-74
2022/04/10 03:34:46;;;;;;;;;;;5.40;58.10;;;;;;5149597;27;19937;-73
2022/04/10 03:37:12;;;;;;;;;;;5.60;58.10;;;;;;5131176;27;19972;-74
2022/04/10 03:39:37;;;;;;;;;;;5.60;58.10;;;;;;5149721;27;19911;-73
2022/04/10 03:42:03;;;;;;;;;;;5.60;58.10;;;;;;5149672;27;19907;-74
2022/04/10 03:44:29;;;;;;;;;;;5.70;58.00;;;;;;5149599;27;19915;-73
2022/04/10 03:46:54;;;;;;;;;;;5.80;58.10;;;;;;5149565;27;19919;-73
2022/04/10 03:49:20;;;;;;;;;;;5.90;58.10;;;;;;5149627;27;19968;-73
2022/04/10 03:51:45;;;;;;;;;;;6.00;58.00;;;;;;5149569;27;19915;-74
2022/04/10 03:54:11;;;;;;;;;;;6.10;57.90;;;;;;5131095;27;19917;-73
2022/04/10 03:56:36;;;;;;;;;;;6.20;57.90;;;;;;5149448;27;19915;-73
2022/04/10 03:59:02;;;;;;;;;;;6.40;58.50;;;;;;5149348;27;20357;-73
2022/04/10 04:01:28;;;;;;;;;;;6.50;57.90;;;;;;5149537;27;19914;-73
2022/04/10 04:03:53;;;;;;;;;;;6.60;57.70;;;;;;5149525;27;19907;-73
2022/04/10 04:06:19;;;;;;;;;;;6.60;57.70;;;;;;5149507;27;19917;-74
2022/04/10 04:08:44;;;;;;;;;;;6.70;58.00;;;;;;5149461;27;19922;-73
2022/04/10 04:11:10;;;;;;;;;;;6.70;57.90;;;;;;5149272;27;19911;-73
2022/04/10 04:13:36;;;;;;;;;;;6.70;57.90;;;;;;5149348;27;19918;-74
2022/04/10 04:16:02;;;;;;;;;;;6.70;58.00;;;;;;5149361;27;20280;-73
2022/04/10 04:18:28;;;;;;;;;;;6.70;58.10;;;;;;5130939;27;19911;-73
2022/04/10 04:20:54;;;;;;;;;;;6.70;58.10;;;;;;5149372;27;19911;-73
2022/04/10 04:23:19;;;;;;;;;;;6.80;58.20;;;;;;5149275;27;19997;-74
2022/04/10 04:25:45;;;;;;;;;;;6.80;58.20;;;;;;5149354;27;19915;-74
2022/04/10 04:28:11;;;;;;;;;;;6.80;58.30;;;;;;5149143;27;19915;-73
2022/04/10 04:30:36;;;;;;;;;;;6.80;58.30;;;;;;5149171;27;19915;-74
2022/04/10 04:33:02;;;;;;;;;;;6.90;58.20;;;;;;5149012;27;19922;-73
2022/04/10 04:35:27;;;;;;;;;;;7.00;58.20;;;;;;5149092;27;19923;-74
2022/04/10 04:37:53;;;;;;;;;;;6.90;58.20;;;;;;5149176;27;19914;-74
2022/04/10 04:40:19;;;;;;;;;;;6.90;58.30;;;;;;5149238;27;19911;-73
2022/04/10 04:42:45;;;;;;;;;;;6.80;58.30;;;;;;5151895;27;19915;-73
2022/04/10 04:45:10;;;;;;;;;;;6.80;58.50;;;;;;5134161;27;20001;-73
2022/04/10 04:47:36;;;;;;;;;;;6.80;58.50;;;;;;5152629;27;19911;-74
2022/04/10 04:50:01;;;;;;;;;;;6.80;58.50;;;;;;5152656;27;19915;-75
2022/04/10 04:52:27;;;;;;;;;;;6.90;58.60;;;;;;5152685;27;19915;-74
2022/04/10 04:54:52;;;;;;;;;;;7.00;58.60;;;;;;5152625;27;20054;-73
2022/04/10 04:57:18;;;;;;;;;;;7.00;58.40;;;;;;5152450;27;19918;-74
2022/04/10 04:59:43;;;;;;;;;;;7.00;58.50;;;;;;5152467;27;20614;-74
2022/04/10 05:02:09;;;;;;;;;;;7.00;58.50;;;;;;5153028;27;19968;-73
2022/04/10 05:04:35;;;;;;;;;;;7.00;58.50;;;;;;5152568;27;19925;-74
2022/04/10 05:07:00;;;;;;;;;;;6.90;58.50;;;;;;5152212;27;20028;-74
2022/04/10 05:09:26;;;;;;;;;;;6.90;58.60;;;;;;5134073;27;19918;-73
2022/04/10 05:11:51;;;;;;;;;;;6.90;58.60;;;;;;5152205;27;19922;-74
2022/04/10 05:14:17;;;;;;;;;;;6.90;58.70;;;;;;5152237;27;20421;-73
2022/04/10 05:16:42;;;;;;;;;;;6.90;58.70;;;;;;5152189;27;19911;-74
2022/04/10 05:19:08;;;;;;;;;;;6.90;58.70;;;;;;5151951;27;19915;-74
2022/04/10 05:21:33;;;;;;;;;;;6.90;58.70;;;;;;5133549;27;19960;-73
2022/04/10 05:23:59;;;;;;;;;;;6.90;58.70;;;;;;5152027;27;19911;-73
2022/04/10 05:26:25;;;;;;;;;;;6.90;58.80;;;;;;5151987;27;19919;-74
2022/04/10 05:28:50;;;;;;;;;;;7.00;58.90;;;;;;5151785;27;19914;-73
2022/04/10 05:31:16;;;;;;;;;;;7.10;59.30;;;;;;5133176;27;20319;-74
2022/04/10 05:33:41;;;;;;;;;;;7.20;58.70;;;;;;5151652;27;19976;-74
2022/04/10 05:36:09;;;;;;;;;;;7.20;58.60;;;;;;5151242;27;20445;-74
2022/04/10 05:38:34;;;;;;;;;;;7.20;58.60;;;;;;5151731;27;19942;-74
2022/04/10 05:41:00;;;;;;;;;;;7.20;58.60;;;;;;5115999;27;19958;-73
2022/04/10 05:43:25;;;;;;;;;;;7.20;58.70;;;;;;5151672;27;20023;-73
2022/04/10 05:45:51;;;;;;;;;;;7.30;58.80;;;;;;5151592;27;19907;-74
2022/04/10 05:48:17;;;;;;;;;;;7.30;58.60;;;;;;5151529;27;19915;-73
2022/04/10 05:50:43;;;;;;;;;;;7.40;58.50;;;;;;5151561;27;19914;-73
2022/04/10 05:53:09;;;;;;;;;;;7.50;58.50;;;;;;5132820;27;20014;-74
2022/04/10 05:55:35;;;;;;;;;;;7.50;58.50;;;;;;5151376;27;20014;-73
2022/04/10 05:58:04;;;;;;;;;;;7.50;58.40;;;;;;5151362;27;19918;-73
2022/04/10 06:00:30;;;;;;;;;;;7.60;58.50;;;;;;5151288;27;19911;-73
2022/04/10 06:02:55;;;;;;;;;;;7.60;58.50;;;;;;5151281;27;19915;-73
2022/04/10 06:05:22;;;;;;;;;;;7.60;58.60;;;;;;5151258;27;20121;-74
2022/04/10 06:07:47;;;;;;;;;;;7.70;58.80;;;;;;5151087;27;20335;-73
2022/04/10 06:10:13;;;;;;;;;;;7.80;58.80;;;;;;5151087;27;19911;-73
2022/04/10 06:12:39;;;;;;;;;;;7.80;58.80;;;;;;5132331;27;19911;-74
2022/04/10 06:15:05;;;;;;;;;;;7.90;58.80;;;;;;5151027;27;19933;-74
2022/04/10 06:17:30;;;;;;;;;;;8.00;58.80;;;;;;5150786;27;19907;-74
2022/04/10 06:19:56;;;;;;;;;;;8.00;58.80;;;;;;5150853;27;20039;-74
2022/04/10 06:22:23;;;;;;;;;;;8.10;58.90;;;;;;5132360;27;20002;-74
2022/04/10 06:24:52;;;;;;;;;;;8.10;58.80;;;;;;5150891;27;19961;-74
2022/04/10 06:27:17;;;;;;;;;;;8.20;58.80;;;;;;5150624;27;19915;-74
2022/04/10 06:29:43;;;;;;;;;;;8.30;58.90;;;;;;5150704;27;20376;-74
2022/04/10 06:32:08;;;;;;;;;;;8.40;59.00;;;;;;5150381;27;19926;-74
2022/04/10 06:34:34;;;;;;;;;;;8.40;59.00;;;;;;5150389;27;19923;-74
2022/04/10 06:37:00;;;;;;;;;;;8.50;59.00;;;;;;5150357;27;19924;-74
2022/04/10 06:39:25;;;;;;;;;;;8.60;59.00;;;;;;5150523;27;19918;-73
2022/04/10 06:41:51;;;;;;;;;;;8.60;59.10;;;;;;5150456;27;19907;-74
2022/04/10 06:44:17;;;;;;;;;;;8.60;59.20;;;;;;5131952;27;19987;-73
2022/04/10 06:46:43;;;;;;;;;;;8.70;59.30;;;;;;5150448;27;19951;-74
2022/04/10 06:49:09;;;;;;;;;;;8.80;59.30;;;;;;5150253;27;20376;-74
2022/04/10 06:51:34;;;;;;;;;;;8.90;59.30;;;;;;5131639;27;19919;-74
2022/04/10 06:54:00;;;;;;;;;;;8.90;59.20;;;;;;5150083;27;19915;-75
2022/04/10 06:56:25;;;;;;;;;;;9.00;59.50;;;;;;5149931;27;19920;-74
2022/04/10 06:58:51;;;;;;;;;;;9.10;59.30;;;;;;5149763;27;19917;-74
2022/04/10 07:01:16;;;;;;;;;;;9.10;59.40;;;;;;5149728;27;19915;-74
2022/04/10 07:03:42;;;;;;;;;;;9.10;59.40;;;;;;5149281;27;19911;-74
2022/04/10 07:06:08;;;;;;;;;;;9.20;59.50;;;;;;5149767;27;19951;-74
2022/04/10 07:08:35;;;;;;;;;;;9.20;59.50;;;;;;5150543;27;19912;-74
2022/04/10 07:11:01;;;;;;;;;;;9.40;59.70;;;;;;5149832;27;20297;-74
2022/04/10 07:13:26;;;;;;;;;;;9.40;59.60;;;;;;5114126;27;19919;-74
2022/04/10 07:15:52;;;;;;;;;;;9.50;59.60;;;;;;5149837;27;19918;-74
2022/04/10 07:18:18;;;;;;;;;;;9.60;59.80;;;;;;5149552;27;19911;-74
2022/04/10 07:20:44;;;;;;;;;;;9.60;59.70;;;;;;5149680;27;19911;-74
2022/04/10 07:25:53;;;;;;;;;;;9.70;60.20;;;;;;5150019;27;20285;-74
2022/04/10 07:28:19;;;;;;;;;;;9.70;59.80;;;;;;5149605;27;19936;-74
2022/04/10 07:30:45;;;;;;;;;;;9.80;59.80;;;;;;5149587;27;20372;-75
2022/04/10 07:33:11;;;;;;;;;;;9.90;59.80;;;;;;5150289;27;19926;-74
2022/04/10 07:35:38;;;;;;;;;;;9.90;59.80;;;;;;5132052;27;19911;-74
2022/04/10 07:38:04;;;;;;;;;;;10.00;59.90;;;;;;5150646;27;19976;-74
2022/04/10 07:40:30;;;;;;;;;;;10.00;59.90;;;;;;5150627;27;20342;-74
2022/04/10 07:42:56;;;;;;;;;;;10.00;60.00;;;;;;5150695;27;19950;-74
2022/04/10 07:48:06;;;;;;;;;;;10.20;59.90;;;;;;5149629;27;19916;-73
2022/04/10 07:50:32;;;;;;;;;;;10.20;60.00;;;;;;5149420;27;19907;-74
2022/04/10 07:52:58;;;;;;;;;;;10.30;60.20;;;;;;5149036;27;19911;-74
2022/04/10 07:55:25;;;;;;;;;;;10.40;60.30;;;;;;5149013;27;20105;-74
2022/04/10 07:57:51;;;;;;;;;;;10.50;60.20;;;;;;5148813;27;19954;-75
2022/04/10 08:00:17;;;;;;;;;;;10.60;60.30;;;;;;5130244;27;20037;-74
2022/04/10 08:02:46;;;;;;;;;;;10.60;60.20;;;;;;5149318;27;19914;-74
2022/04/10 08:05:13;;;;;;;;;;;10.70;60.40;;;;;;5130500;27;19954;-74
2022/04/10 08:07:38;;;;;;;;;;;10.70;60.60;;;;;;5148995;27;19918;-74
2022/04/10 08:10:04;;;;;;;;;;;10.70;60.50;;;;;;5130722;27;19907;-73
2022/04/10 08:12:30;;;;;;;;;;;10.70;60.40;;;;;;5149079;27;19915;-73
2022/04/10 08:14:55;;;;;;;;;;;10.60;60.80;;;;;;5148922;27;19908;-73
2022/04/10 08:17:21;;;;;;;;;;;10.50;60.90;;;;;;5151318;27;19915;-73
2022/04/10 08:19:46;;;;;;;;;;;10.60;60.90;;;;;;5153011;27;19946;-73
2022/04/10 08:22:12;;;;;;;;;;;10.60;60.90;;;;;;5153431;27;19922;-74
2022/04/10 08:24:37;;;;;;;;;;;10.70;61.10;;;;;;5152628;27;20364;-73
2022/04/10 08:27:03;;;;;;;;;;;10.80;61.00;;;;;;5152956;27;20090;-73
2022/04/10 08:29:29;;;;;;;;;;;10.70;60.90;;;;;;5152460;27;20005;-73
2022/04/10 08:31:54;;;;;;;;;;;10.70;61.00;;;;;;5152665;27;19988;-73
2022/04/10 08:34:20;;;;;;;;;;;10.70;61.10;;;;;;5152337;27;19927;-73
2022/04/10 08:36:45;;;;;;;;;;;10.70;61.10;;;;;;5133978;27;20268;-73
2022/04/10 08:39:11;;;;;;;;;;;10.70;61.00;;;;;;5152501;27;19939;-74
2022/04/10 08:41:37;;;;;;;;;;;10.70;61.10;;;;;;5152509;27;19924;-73
2022/04/10 08:44:04;;;;;;;;;;;10.80;61.40;;;;;;5152425;27;19914;-74
2022/04/10 08:46:30;;;;;;;;;;;10.70;61.30;;;;;;5134202;27;19911;-73
2022/04/10 08:48:57;;;;;;;;;;;10.70;61.30;;;;;;5152488;27;19911;-73
2022/04/10 08:51:24;;;;;;;;;;;10.60;61.50;;;;;;5152174;27;19907;-73
2022/04/10 08:53:50;;;;;;;;;;;10.60;61.40;;;;;;5151988;27;19907;-74
2022/04/10 08:56:15;;;;;;;;;;;10.60;61.50;;;;;;5152082;27;19918;-73
2022/04/10 08:58:41;;;;;;;;;;;10.60;61.50;;;;;;5152179;27;20150;-74
2022/04/10 09:01:09;;;;;;;;;;;10.70;61.70;;;;;;5151993;27;20277;-73
2022/04/10 09:03:35;;;;;;;;;;;10.70;61.80;;;;;;5133074;27;19911;-73
2022/04/10 09:06:04;;;;;;;;;;;10.70;61.80;;;;;;5152133;27;20196;-73
2022/04/10 09:08:30;;;;;;;;;;;10.70;61.90;;;;;;5152160;27;19919;-73
2022/04/10 09:10:59;;;;;;;;;;;10.70;62.10;;;;;;5133467;27;20268;-73
2022/04/10 09:13:31;;;;;;;;;;;10.60;62.00;;;;;;5151738;27;19911;-73
2022/04/10 09:16:07;;;;;;;;;;;10.50;62.30;;;;;;5151919;27;19969;-74
2022/04/10 09:19:00;;;;;;;;;;;10.60;62.60;;;;;;5151915;27;20002;-73
2022/04/10 09:21:33;;;;;;;;;;;10.60;62.30;;;;;;5130087;27;19907;-74
2022/04/10 09:24:10;;;;;;;;;;;10.70;62.40;;;;;;5151464;27;19915;-73
2022/04/10 09:26:43;;;;;;;;;;;10.80;62.40;;;;;;5132374;27;19918;-74
2022/04/10 09:29:08;;;;;;;;;;;10.90;62.50;;;;;;5151088;27;19915;-73
2022/04/10 09:31:34;;;;;;;;;;;10.90;62.40;;;;;;5151233;27;20482;-74
2022/04/10 09:34:01;;;;;;;;;;;11.10;62.50;;;;;;5151040;27;19932;-74
2022/04/10 09:36:47;;;;;;;;;;;11.20;62.40;;;;;;5151348;27;19914;-74
2022/04/10 09:39:29;;;;;;;;;;;11.40;62.30;;;;;;5150293;27;19983;-74
2022/04/10 09:42:01;;;;;;;;;;;11.50;62.30;;;;;;5132869;27;19907;-74
2022/04/10 09:44:31;;;;;;;;;;;11.50;62.10;;;;;;5151048;27;19954;-74
2022/04/10 09:46:58;;;;;;;;;;;11.60;62.20;;;;;;5150732;27;20364;-74
2022/04/10 09:49:23;;;;;;;;;;;11.70;62.10;;;;;;5150922;27;19907;-74
2022/04/10 09:52:01;;;;;;;;;;;11.80;62.20;;;;;;5150539;27;20033;-74
2022/04/10 09:54:32;;;;;;;;;;;11.80;62.20;;;;;;5150177;27;19907;-74
2022/04/10 09:57:00;;;;;;;;;;;11.90;62.20;;;;;;5150375;27;19975;-73
2022/04/10 09:59:27;;;;;;;;;;;12.00;62.10;;;;;;5150837;27;20002;-73
2022/04/10 10:01:53;;;;;;;;;;;12.10;62.10;;;;;;5150568;27;20317;-73
2022/04/10 10:04:19;;;;;;;;;;;12.10;62.10;;;;;;5150600;27;19943;-73
2022/04/10 10:06:45;;;;;;;;;;;12.10;62.20;;;;;;5150455;27;19950;-73
2022/04/10 10:09:12;;;;;;;;;;;12.10;62.10;;;;;;5150299;27;19915;-75
2022/04/10 10:11:37;;;;;;;;;;;12.20;62.10;;;;;;5150279;27;19915;-73
2022/04/10 10:14:03;;;;;;;;;;;12.20;62.30;;;;;;5150284;27;19955;-73
2022/04/10 10:16:29;;;;;;;;;;;12.20;62.40;;;;;;5150116;27;19921;-74
2022/04/10 10:18:55;;;;;;;;;;;12.30;62.40;;;;;;5114397;27;19914;-73
2022/04/10 10:21:20;;;;;;;;;;;12.50;62.40;;;;;;5150156;27;19915;-73
2022/04/10 10:23:48;;;;;;;;;;;12.60;62.30;;;;;;5150152;27;19951;-73
2022/04/10 10:26:23;;;;;;;;;;;12.70;62.10;;;;;;5150345;27;19922;-73
2022/04/10 10:28:57;;;;;;;;;;;12.80;62.10;;;;;;5149748;27;19931;-73
2022/04/10 10:31:36;;;;;;;;;;;12.90;62.10;;;;;;5149472;27;19946;-74
2022/04/10 10:34:04;;;;;;;;;;;12.90;62.00;;;;;;5149406;27;20358;-73
2022/04/10 10:36:29;;;;;;;;;;;12.80;62.00;;;;;;5149247;27;19907;-74
2022/04/10 10:38:56;;;;;;;;;;;12.90;62.00;;;;;;5149353;27;19963;-74
2022/04/10 10:41:21;;;;;;;;;;;12.90;62.10;;;;;;5131298;27;19975;-74
2022/04/10 10:43:47;;;;;;;;;;;12.90;62.10;;;;;;5149356;27;19907;-74
2022/04/10 10:46:22;;;;;;;;;;;12.90;62.00;;;;;;5149625;27;19964;-73
2022/04/10 10:48:50;;;;;;;;;;;12.90;61.90;;;;;;5149567;27;20281;-74
2022/04/10 10:51:15;;;;;;;;;;;12.90;61.90;;;;;;5130977;27;19914;-74
2022/04/10 10:53:48;;;;;;;;;;;12.90;61.80;;;;;;5148830;27;19911;-73
2022/04/10 10:56:17;;;;;;;;;;;12.90;61.90;;;;;;5130886;27;19954;-74
2022/04/10 10:58:42;;;;;;;;;;;12.90;61.70;;;;;;5149081;27;19907;-73
2022/04/10 11:01:08;;;;;;;;;;;12.90;61.80;;;;;;5149296;27;19918;-73
2022/04/10 11:03:53;;;;;;;;;;;12.80;61.80;;;;;;5149085;27;19911;-75
2022/04/10 11:06:20;;;;;;;;;;;12.80;61.90;;;;;;5149252;27;20030;-73
2022/04/10 11:08:46;;;;;;;;;;;12.80;61.90;;;;;;5148973;27;19914;-74
2022/04/10 11:11:18;;;;;;;;;;;12.90;61.80;;;;;;5149514;27;19911;-73
2022/04/10 11:13:46;;;;;;;;;;;13.00;61.90;;;;;;5149255;27;20357;-74
2022/04/10 11:16:12;;;;;;;;;;;13.10;61.90;;;;;;5148819;27;19914;-73
2022/04/10 11:18:49;;;;;;;;;;;13.30;61.90;;;;;;5149005;27;20357;-73
2022/04/10 11:21:19;;;;;;;;;;;13.50;61.80;;;;;;5148657;27;20360;-73
2022/04/10 11:23:45;;;;;;;;;;;13.60;61.90;;;;;;5148377;27;19971;-73
2022/04/10 11:26:19;;;;;;;;;;;13.80;61.90;;;;;;5148253;27;19994;-73
2022/04/10 11:29:00;;;;;;;;;;;13.90;61.80;;;;;;5149033;27;19950;-73
2022/04/10 11:31:29;;;;;;;;;;;14.20;61.80;;;;;;5149028;27;19990;-73
2022/04/10 11:34:05;;;;;;;;;;;14.40;61.70;;;;;;5148675;27;20010;-73
2022/04/10 11:36:43;;;;;;;;;;;14.70;61.30;;;;;;5148715;27;19943;-73
2022/04/10 11:39:09;;;;;;;;;;;14.80;61.40;;;;;;5148205;27;20369;-73
2022/04/10 11:41:34;;;;;;;;;;;15.20;61.80;;;;;;5130091;27;19911;-73
2022/04/10 11:44:00;;;;;;;;;;;15.80;61.50;;;;;;5148847;27;19920;-73
2022/04/10 11:46:29;;;;;;;;;;;15.80;60.30;;;;;;5130271;27;19926;-73
2022/04/10 11:48:55;;;;;;;;;;;15.60;60.00;;;;;;5130604;27;19927;-73
2022/04/10 11:51:20;;;;;;;;;;;15.40;60.00;;;;;;5151084;27;19917;-73
2022/04/10 11:53:53;;;;;;;;;;;15.20;60.10;;;;;;5152735;27;19911;-74
2022/04/10 11:56:19;;;;;;;;;;;15.00;60.30;;;;;;5152663;27;19907;-73
2022/04/10 11:58:44;;;;;;;;;;;14.80;60.20;;;;;;5152852;27;20041;-73
2022/04/10 12:01:12;;;;;;;;;;;14.70;60.30;;;;;;5152866;27;19964;-73
2022/04/10 12:03:40;;;;;;;;;;;14.50;60.50;;;;;;5134331;27;19953;-74
2022/04/10 12:06:06;;;;;;;;;;;14.40;60.50;;;;;;5152552;27;20280;-74
2022/04/10 12:08:31;;;;;;;;;;;14.30;60.60;;;;;;5152918;27;19920;-74
2022/04/10 12:10:59;;;;;;;;;;;14.30;60.80;;;;;;5152565;27;20299;-65
2022/04/10 12:13:34;;;;;;;;;;;14.40;60.30;;;;;;5133517;27;20034;-74
2022/04/10 12:16:26;;;;;;;;;;;14.40;60.30;;;;;;5152243;27;19916;-74
2022/04/10 12:18:52;;;;;;;;;;;14.50;60.50;;;;;;5149368;27;19919;-74
2022/04/10 12:21:19;;;;;;;;;;;14.60;60.40;;;;;;5152544;27;19911;-73
2022/04/10 12:23:45;;;;;;;;;;;14.70;60.30;;;;;;5152141;27;19907;-74
2022/04/10 12:26:11;;;;;;;;;;;14.50;59.80;;;;;;5152103;27;19918;-73
2022/04/10 12:28:38;;;;;;;;;;;14.40;60.00;;;;;;5151565;27;19911;-73
2022/04/10 12:31:04;;;;;;;;;;;14.30;59.90;;;;;;5151598;27;19916;-74
2022/04/10 12:33:30;;;;;;;;;;;14.30;60.00;;;;;;5132078;27;20353;-73
2022/04/10 12:35:55;;;;;;;;;;;14.20;60.30;;;;;;5133478;27;20353;-73
2022/04/10 12:38:26;;;;;;;;;;;14.20;59.80;;;;;;5151886;27;19925;-74
2022/04/10 12:41:01;;;;;;;;;;;14.20;59.80;;;;;;5152056;27;19907;-73
2022/04/10 12:43:29;;;;;;;;;;;14.10;59.80;;;;;;5151468;27;19950;-74
2022/04/10 12:46:06;;;;;;;;;;;14.00;60.00;;;;;;5151848;27;19963;-74
2022/04/10 12:48:32;;;;;;;;;;;14.10;60.20;;;;;;5133172;27;19913;-74
2022/04/10 12:51:11;;;;;;;;;;;14.10;60.20;;;;;;5151752;27;20356;-72
2022/04/10 12:53:37;;;;;;;;;;;14.20;60.30;;;;;;5151510;27;19934;-73
2022/04/10 12:56:17;;;;;;;;;;;14.30;60.40;;;;;;5151317;27;19907;-73
2022/04/10 12:58:47;;;;;;;;;;;14.50;60.40;;;;;;5151540;27;20310;-74
2022/04/10 13:01:28;;;;;;;;;;;14.60;60.00;;;;;;5133149;27;20363;-73
2022/04/10 13:03:54;;;;;;;;;;;14.60;59.90;;;;;;5131963;27;19907;-73
2022/04/10 13:06:25;;;;;;;;;;;14.60;60.00;;;;;;5151262;27;19930;-73
2022/04/10 13:08:51;;;;;;;;;;;14.60;59.80;;;;;;5132343;27;20317;-73
2022/04/10 13:11:16;;;;;;;;;;;14.60;59.80;;;;;;5151655;27;19915;-74
2022/04/10 13:14:03;;;;;;;;;;;14.60;59.80;;;;;;5151509;27;19931;-73
2022/04/10 13:16:28;;;;;;;;;;;14.60;59.80;;;;;;5151632;27;19921;-73
2022/04/10 13:18:55;;;;;;;;;;;14.60;59.70;;;;;;5151550;27;19907;-73
2022/04/10 13:21:22;;;;;;;;;;;14.50;59.60;;;;;;5151325;27;19907;-74
2022/04/10 13:23:47;;;;;;;;;;;14.50;59.90;;;;;;5151319;27;19907;-73
2022/04/10 13:26:22;;;;;;;;;;;14.60;59.80;;;;;;5151418;27;19918;-73
2022/04/10 13:28:47;;;;;;;;;;;14.50;59.40;;;;;;5150469;27;19914;-74
2022/04/10 13:31:13;;;;;;;;;;;14.40;59.50;;;;;;5151639;27;20272;-73
2022/04/10 13:33:39;;;;;;;;;;;14.30;59.70;;;;;;5151045;27;19927;-73
2022/04/10 13:36:04;;;;;;;;;;;14.20;59.60;;;;;;5150913;27;20009;-73
2022/04/10 13:38:30;;;;;;;;;;;14.20;59.90;;;;;;5150978;27;20441;-73
2022/04/10 13:40:55;;;;;;;;;;;14.20;60.00;;;;;;5150992;27;19922;-73
2022/04/10 13:43:21;;;;;;;;;;;14.20;60.70;;;;;;5150797;27;19937;-74
2022/04/10 13:45:46;;;;;;;;;;;14.30;60.40;;;;;;5150787;27;20006;-73
2022/04/10 13:48:12;;;;;;;;;;;14.40;60.20;;;;;;5131639;27;20010;-74
2022/04/10 13:50:37;;;;;;;;;;;14.40;60.10;;;;;;5132345;27;19968;-74
2022/04/10 13:53:03;;;;;;;;;;;14.30;60.10;;;;;;5150495;27;19921;-73
2022/04/10 13:55:28;;;;;;;;;;;14.30;60.20;;;;;;5150455;27;19915;-72
2022/04/10 13:57:54;;;;;;;;;;;14.20;60.10;;;;;;5150719;27;20319;-73
2022/04/10 14:00:20;;;;;;;;;;;14.10;60.20;;;;;;5150847;27;19921;-73
2022/04/10 14:02:45;;;;;;;;;;;13.90;60.30;;;;;;5150213;27;20018;-70
2022/04/10 14:05:11;;;;;;;;;;;13.80;60.50;;;;;;5150535;27;19911;-71
2022/04/10 14:07:36;;;;;;;;;;;13.80;60.70;;;;;;5150365;27;19912;-73
2022/04/10 14:10:03;;;;;;;;;;;13.90;60.70;;;;;;5131741;27;19931;-74
2022/04/10 14:12:28;;;;;;;;;;;13.90;60.70;;;;;;5150038;27;20311;-73
2022/04/10 14:14:54;;;;;;;;;;;13.90;60.60;;;;;;5148617;27;19925;-73
2022/04/10 14:17:20;;;;;;;;;;;13.90;60.60;;;;;;5131705;27;19978;-72
2022/04/10 14:19:45;;;;;;;;;;;13.80;60.60;;;;;;5131620;27;19911;-73
2022/04/10 14:22:11;;;;;;;;;;;13.80;60.50;;;;;;5114057;27;20350;-73
2022/04/10 14:24:37;;;;;;;;;;;13.60;60.70;;;;;;5149707;27;20373;-73
2022/04/10 14:27:02;;;;;;;;;;;13.60;60.80;;;;;;5149724;27;19915;-73